sensor_id;sensor_type;location;lat;lon;timestamp;P1;durP1;ratioP1;P2;durP2;ratioP2
9547;SDS011;4812;51.992;8.648;2023-07-02T00:00:26;15.77;;;11.00;;
9547;SDS011;4812;51.992;8.648;2023-07-02T00:02:53;14.13;;;10.18;;
9547;SDS011;4812;51.992;8.648;2023-07-02T00:05:21;12.23;;;9.57;;
9547;SDS011;4812;51.992;8.648;2023-07-02T00:07:49;14.77;;;11.43;;
9547;SDS011;4812;51.992;8.648;2023-07-02T00:10:17;14.50;;;10.75;;
9547;SDS011;4812;51.992;8.648;2023-07-02T00:15:34;20.17;;;11.57;;
9547;SDS011;4812;51.992;8.648;2023-07-02T00:18:02;22.75;;;14.27;;
9547;SDS011;4812;51.992;8.648;2023-07-02T00:20:29;30.00;;;17.33;;
9547;SDS011;4812;51.992;8.648;2023-07-02T00:23:01;28.35;;;16.85;;
9547;SDS011;4812;51.992;8.648;2023-07-02T00:25:29;31.20;;;18.08;;
9547;SDS011;4812;51.992;8.648;2023-07-02T00:31:00;29.00;;;16.52;;
9547;SDS011;4812;51.992;8.648;2023-07-02T00:33:29;26.45;;;14.60;;
9547;SDS011;4812;51.992;8.648;2023-07-02T00:35:57;24.50;;;14.52;;
9547;SDS011;4812;51.992;8.648;2023-07-02T00:38:27;17.67;;;12.98;;
9547;SDS011;4812;51.992;8.648;2023-07-02T00:40:55;17.70;;;12.85;;
9547;SDS011;4812;51.992;8.648;2023-07-02T00:43:23;17.70;;;12.48;;
9547;SDS011;4812;51.992;8.648;2023-07-02T00:48:39;13.70;;;9.90;;
9547;SDS011;4812;51.992;8.648;2023-07-02T00:51:07;14.77;;;10.32;;
9547;SDS011;4812;51.992;8.648;2023-07-02T00:53:35;15.35;;;10.73;;
9547;SDS011;4812;51.992;8.648;2023-07-02T00:56:04;20.13;;;10.88;;
9547;SDS011;4812;51.992;8.648;2023-07-02T01:01:32;16.73;;;10.93;;
9547;SDS011;4812;51.992;8.648;2023-07-02T01:04:05;13.02;;;10.60;;
9547;SDS011;4812;51.992;8.648;2023-07-02T01:06:35;12.45;;;10.10;;
9547;SDS011;4812;51.992;8.648;2023-07-02T01:09:06;13.52;;;9.25;;
9547;SDS011;4812;51.992;8.648;2023-07-02T01:14:36;12.93;;;9.75;;
9547;SDS011;4812;51.992;8.648;2023-07-02T01:17:05;13.38;;;9.98;;
9547;SDS011;4812;51.992;8.648;2023-07-02T01:19:39;10.27;;;8.80;;
9547;SDS011;4812;51.992;8.648;2023-07-02T01:22:09;13.65;;;9.88;;
9547;SDS011;4812;51.992;8.648;2023-07-02T01:24:38;16.50;;;10.23;;
9547;SDS011;4812;51.992;8.648;2023-07-02T01:27:06;18.30;;;11.75;;
9547;SDS011;4812;51.992;8.648;2023-07-02T01:29:34;15.77;;;11.77;;
9547;SDS011;4812;51.992;8.648;2023-07-02T01:35:07;14.32;;;10.05;;
9547;SDS011;4812;51.992;8.648;2023-07-02T01:37:35;14.48;;;10.68;;
9547;SDS011;4812;51.992;8.648;2023-07-02T01:40:05;19.10;;;12.60;;
9547;SDS011;4812;51.992;8.648;2023-07-02T01:42:35;16.05;;;11.70;;
9547;SDS011;4812;51.992;8.648;2023-07-02T01:45:02;18.02;;;12.32;;
9547;SDS011;4812;51.992;8.648;2023-07-02T01:47:30;16.77;;;12.30;;
9547;SDS011;4812;51.992;8.648;2023-07-02T01:49:58;16.08;;;11.05;;
9547;SDS011;4812;51.992;8.648;2023-07-02T01:55:21;13.07;;;10.18;;
9547;SDS011;4812;51.992;8.648;2023-07-02T02:00:40;14.40;;;11.13;;
9547;SDS011;4812;51.992;8.648;2023-07-02T02:03:07;12.93;;;9.55;;
9547;SDS011;4812;51.992;8.648;2023-07-02T02:05:35;11.20;;;9.38;;
9547;SDS011;4812;51.992;8.648;2023-07-02T02:08:03;14.82;;;9.68;;
9547;SDS011;4812;51.992;8.648;2023-07-02T02:10:32;12.25;;;9.93;;
9547;SDS011;4812;51.992;8.648;2023-07-02T02:13:00;12.50;;;10.30;;
9547;SDS011;4812;51.992;8.648;2023-07-02T02:15:31;13.45;;;10.90;;
9547;SDS011;4812;51.992;8.648;2023-07-02T02:17:59;12.35;;;10.90;;
9547;SDS011;4812;51.992;8.648;2023-07-02T02:20:26;16.70;;;11.82;;
9547;SDS011;4812;51.992;8.648;2023-07-02T02:22:54;18.00;;;10.38;;
9547;SDS011;4812;51.992;8.648;2023-07-02T02:25:21;15.38;;;11.70;;
9547;SDS011;4812;51.992;8.648;2023-07-02T02:30:54;12.88;;;10.85;;
9547;SDS011;4812;51.992;8.648;2023-07-02T02:36:25;15.80;;;11.38;;
9547;SDS011;4812;51.992;8.648;2023-07-02T02:38:52;17.92;;;11.80;;
9547;SDS011;4812;51.992;8.648;2023-07-02T02:41:20;14.95;;;11.70;;
9547;SDS011;4812;51.992;8.648;2023-07-02T02:46:44;13.60;;;11.55;;
9547;SDS011;4812;51.992;8.648;2023-07-02T02:52:00;13.88;;;11.13;;
9547;SDS011;4812;51.992;8.648;2023-07-02T02:54:27;15.38;;;11.70;;
9547;SDS011;4812;51.992;8.648;2023-07-02T02:56:55;13.43;;;10.75;;
9547;SDS011;4812;51.992;8.648;2023-07-02T02:59:22;15.70;;;11.88;;
9547;SDS011;4812;51.992;8.648;2023-07-02T03:01:51;15.68;;;12.10;;
9547;SDS011;4812;51.992;8.648;2023-07-02T03:04:19;18.33;;;12.10;;
9547;SDS011;4812;51.992;8.648;2023-07-02T03:06:51;15.93;;;11.70;;
9547;SDS011;4812;51.992;8.648;2023-07-02T03:09:20;12.27;;;10.95;;
9547;SDS011;4812;51.992;8.648;2023-07-02T03:11:48;13.95;;;10.75;;
9547;SDS011;4812;51.992;8.648;2023-07-02T03:14:16;13.38;;;10.45;;
9547;SDS011;4812;51.992;8.648;2023-07-02T03:16:43;15.00;;;11.02;;
9547;SDS011;4812;51.992;8.648;2023-07-02T03:19:14;14.30;;;11.80;;
9547;SDS011;4812;51.992;8.648;2023-07-02T03:21:42;14.55;;;11.32;;
9547;SDS011;4812;51.992;8.648;2023-07-02T03:24:10;17.88;;;10.73;;
9547;SDS011;4812;51.992;8.648;2023-07-02T03:26:39;14.02;;;11.43;;
9547;SDS011;4812;51.992;8.648;2023-07-02T03:29:07;12.85;;;10.65;;
9547;SDS011;4812;51.992;8.648;2023-07-02T03:31:34;11.43;;;9.05;;
9547;SDS011;4812;51.992;8.648;2023-07-02T03:34:03;12.25;;;9.98;;
9547;SDS011;4812;51.992;8.648;2023-07-02T03:36:32;13.98;;;10.05;;
9547;SDS011;4812;51.992;8.648;2023-07-02T03:41:58;18.30;;;10.52;;
9547;SDS011;4812;51.992;8.648;2023-07-02T03:44:25;14.35;;;11.63;;
9547;SDS011;4812;51.992;8.648;2023-07-02T03:46:53;16.98;;;10.38;;
9547;SDS011;4812;51.992;8.648;2023-07-02T03:49:21;14.40;;;10.52;;
9547;SDS011;4812;51.992;8.648;2023-07-02T03:54:41;17.60;;;11.25;;
9547;SDS011;4812;51.992;8.648;2023-07-02T03:57:08;20.10;;;12.60;;
9547;SDS011;4812;51.992;8.648;2023-07-02T03:59:37;18.75;;;11.75;;
9547;SDS011;4812;51.992;8.648;2023-07-02T04:05:02;22.15;;;12.57;;
9547;SDS011;4812;51.992;8.648;2023-07-02T04:07:30;20.92;;;13.07;;
9547;SDS011;4812;51.992;8.648;2023-07-02T04:09:59;23.45;;;13.90;;
9547;SDS011;4812;51.992;8.648;2023-07-02T04:12:27;24.88;;;13.90;;
9547;SDS011;4812;51.992;8.648;2023-07-02T04:17:45;23.80;;;15.05;;
9547;SDS011;4812;51.992;8.648;2023-07-02T04:20:12;21.98;;;14.20;;
9547;SDS011;4812;51.992;8.648;2023-07-02T04:22:40;17.92;;;13.70;;
9547;SDS011;4812;51.992;8.648;2023-07-02T04:25:09;22.00;;;13.20;;
9547;SDS011;4812;51.992;8.648;2023-07-02T04:27:56;20.42;;;12.60;;
9547;SDS011;4812;51.992;8.648;2023-07-02T04:30:25;17.02;;;11.55;;
9547;SDS011;4812;51.992;8.648;2023-07-02T04:32:52;22.15;;;12.68;;
9547;SDS011;4812;51.992;8.648;2023-07-02T04:35:20;24.35;;;12.57;;
9547;SDS011;4812;51.992;8.648;2023-07-02T04:37:47;14.25;;;10.93;;
9547;SDS011;4812;51.992;8.648;2023-07-02T04:40:16;16.13;;;11.13;;
9547;SDS011;4812;51.992;8.648;2023-07-02T04:42:44;19.33;;;11.20;;
9547;SDS011;4812;51.992;8.648;2023-07-02T04:48:22;16.75;;;9.88;;
9547;SDS011;4812;51.992;8.648;2023-07-02T04:53:52;13.75;;;9.15;;
9547;SDS011;4812;51.992;8.648;2023-07-02T04:56:21;16.20;;;9.02;;
9547;SDS011;4812;51.992;8.648;2023-07-02T04:58:48;12.45;;;7.35;;
9547;SDS011;4812;51.992;8.648;2023-07-02T05:01:16;12.10;;;7.43;;
9547;SDS011;4812;51.992;8.648;2023-07-02T05:03:43;11.40;;;6.13;;
9547;SDS011;4812;51.992;8.648;2023-07-02T05:06:11;13.55;;;7.07;;
9547;SDS011;4812;51.992;8.648;2023-07-02T05:08:38;12.02;;;6.22;;
9547;SDS011;4812;51.992;8.648;2023-07-02T05:11:08;11.20;;;7.22;;
9547;SDS011;4812;51.992;8.648;2023-07-02T05:16:44;11.32;;;6.25;;
9547;SDS011;4812;51.992;8.648;2023-07-02T05:19:12;14.18;;;6.22;;
9547;SDS011;4812;51.992;8.648;2023-07-02T05:21:40;16.00;;;7.32;;
9547;SDS011;4812;51.992;8.648;2023-07-02T05:24:07;19.13;;;6.47;;
9547;SDS011;4812;51.992;8.648;2023-07-02T05:26:35;20.58;;;6.45;;
9547;SDS011;4812;51.992;8.648;2023-07-02T05:29:03;14.98;;;6.15;;
9547;SDS011;4812;51.992;8.648;2023-07-02T05:31:31;14.05;;;6.90;;
9547;SDS011;4812;51.992;8.648;2023-07-02T05:34:01;12.95;;;5.53;;
9547;SDS011;4812;51.992;8.648;2023-07-02T05:36:29;17.42;;;5.47;;
9547;SDS011;4812;51.992;8.648;2023-07-02T05:38:57;18.45;;;6.40;;
9547;SDS011;4812;51.992;8.648;2023-07-02T05:41:25;20.73;;;5.85;;
9547;SDS011;4812;51.992;8.648;2023-07-02T05:46:45;16.38;;;5.97;;
9547;SDS011;4812;51.992;8.648;2023-07-02T05:49:14;13.80;;;5.38;;
9547;SDS011;4812;51.992;8.648;2023-07-02T05:51:41;12.57;;;5.13;;
9547;SDS011;4812;51.992;8.648;2023-07-02T05:54:09;15.52;;;5.95;;
9547;SDS011;4812;51.992;8.648;2023-07-02T05:56:36;16.88;;;6.13;;
9547;SDS011;4812;51.992;8.648;2023-07-02T05:59:04;15.25;;;7.45;;
9547;SDS011;4812;51.992;8.648;2023-07-02T06:04:23;15.23;;;5.78;;
9547;SDS011;4812;51.992;8.648;2023-07-02T06:06:51;15.07;;;6.15;;
9547;SDS011;4812;51.992;8.648;2023-07-02T06:09:18;14.13;;;6.47;;
9547;SDS011;4812;51.992;8.648;2023-07-02T06:11:46;15.25;;;6.97;;
9547;SDS011;4812;51.992;8.648;2023-07-02T06:14:13;16.98;;;6.18;;
9547;SDS011;4812;51.992;8.648;2023-07-02T06:16:41;15.95;;;6.43;;
9547;SDS011;4812;51.992;8.648;2023-07-02T06:19:09;23.33;;;6.88;;
9547;SDS011;4812;51.992;8.648;2023-07-02T06:21:37;13.70;;;6.28;;
9547;SDS011;4812;51.992;8.648;2023-07-02T06:24:05;21.25;;;7.40;;
9547;SDS011;4812;51.992;8.648;2023-07-02T06:29:35;14.77;;;6.97;;
9547;SDS011;4812;51.992;8.648;2023-07-02T06:32:03;17.17;;;7.28;;
9547;SDS011;4812;51.992;8.648;2023-07-02T06:34:31;16.48;;;6.40;;
9547;SDS011;4812;51.992;8.648;2023-07-02T06:37:00;20.05;;;6.78;;
9547;SDS011;4812;51.992;8.648;2023-07-02T06:42:26;22.30;;;6.97;;
9547;SDS011;4812;51.992;8.648;2023-07-02T06:44:53;18.13;;;6.82;;
9547;SDS011;4812;51.992;8.648;2023-07-02T06:47:21;17.23;;;8.30;;
9547;SDS011;4812;51.992;8.648;2023-07-02T06:49:49;15.18;;;7.22;;
9547;SDS011;4812;51.992;8.648;2023-07-02T06:52:17;13.98;;;6.50;;
9547;SDS011;4812;51.992;8.648;2023-07-02T06:54:45;15.43;;;6.57;;
9547;SDS011;4812;51.992;8.648;2023-07-02T06:57:13;16.80;;;7.95;;
9547;SDS011;4812;51.992;8.648;2023-07-02T06:59:41;13.10;;;6.90;;
9547;SDS011;4812;51.992;8.648;2023-07-02T07:02:08;17.23;;;5.45;;
9547;SDS011;4812;51.992;8.648;2023-07-02T07:07:40;19.88;;;6.70;;
9547;SDS011;4812;51.992;8.648;2023-07-02T07:10:08;12.50;;;6.10;;
9547;SDS011;4812;51.992;8.648;2023-07-02T07:12:36;11.52;;;5.32;;
9547;SDS011;4812;51.992;8.648;2023-07-02T07:15:04;17.02;;;6.57;;
9547;SDS011;4812;51.992;8.648;2023-07-02T07:20:26;20.27;;;6.20;;
9547;SDS011;4812;51.992;8.648;2023-07-02T07:22:55;18.85;;;6.00;;
9547;SDS011;4812;51.992;8.648;2023-07-02T07:25:23;18.30;;;7.85;;
9547;SDS011;4812;51.992;8.648;2023-07-02T07:27:51;18.80;;;6.13;;
9547;SDS011;4812;51.992;8.648;2023-07-02T07:33:09;16.85;;;6.78;;
9547;SDS011;4812;51.992;8.648;2023-07-02T07:35:37;12.75;;;5.68;;
9547;SDS011;4812;51.992;8.648;2023-07-02T07:38:06;14.88;;;5.88;;
9547;SDS011;4812;51.992;8.648;2023-07-02T07:40:33;20.50;;;7.05;;
9547;SDS011;4812;51.992;8.648;2023-07-02T07:43:01;17.27;;;6.65;;
9547;SDS011;4812;51.992;8.648;2023-07-02T07:45:28;11.68;;;5.80;;
9547;SDS011;4812;51.992;8.648;2023-07-02T07:47:56;18.73;;;6.70;;
9547;SDS011;4812;51.992;8.648;2023-07-02T07:53:17;16.50;;;6.18;;
9547;SDS011;4812;51.992;8.648;2023-07-02T07:55:45;15.75;;;6.53;;
9547;SDS011;4812;51.992;8.648;2023-07-02T07:58:13;18.13;;;6.75;;
9547;SDS011;4812;51.992;8.648;2023-07-02T08:00:41;17.27;;;6.75;;
9547;SDS011;4812;51.992;8.648;2023-07-02T08:03:09;13.40;;;6.07;;
9547;SDS011;4812;51.992;8.648;2023-07-02T08:08:40;16.80;;;6.25;;
9547;SDS011;4812;51.992;8.648;2023-07-02T08:11:08;18.83;;;7.15;;
9547;SDS011;4812;51.992;8.648;2023-07-02T08:13:36;18.02;;;6.65;;
9547;SDS011;4812;51.992;8.648;2023-07-02T08:16:04;13.90;;;7.45;;
9547;SDS011;4812;51.992;8.648;2023-07-02T08:18:32;20.00;;;7.38;;
9547;SDS011;4812;51.992;8.648;2023-07-02T08:20:59;20.40;;;6.88;;
9547;SDS011;4812;51.992;8.648;2023-07-02T08:23:27;13.75;;;6.55;;
9547;SDS011;4812;51.992;8.648;2023-07-02T08:28:58;21.73;;;6.97;;
9547;SDS011;4812;51.992;8.648;2023-07-02T08:31:26;18.60;;;6.50;;
9547;SDS011;4812;51.992;8.648;2023-07-02T08:33:53;14.50;;;6.40;;
9547;SDS011;4812;51.992;8.648;2023-07-02T08:36:21;16.58;;;7.20;;
9547;SDS011;4812;51.992;8.648;2023-07-02T08:38:48;18.88;;;6.80;;
9547;SDS011;4812;51.992;8.648;2023-07-02T08:41:16;17.95;;;7.57;;
9547;SDS011;4812;51.992;8.648;2023-07-02T08:46:33;16.80;;;7.55;;
9547;SDS011;4812;51.992;8.648;2023-07-02T08:49:01;15.68;;;6.25;;
9547;SDS011;4812;51.992;8.648;2023-07-02T08:51:28;23.05;;;7.63;;
9547;SDS011;4812;51.992;8.648;2023-07-02T08:53:56;14.55;;;6.28;;
9547;SDS011;4812;51.992;8.648;2023-07-02T08:56:23;15.10;;;6.45;;
9547;SDS011;4812;51.992;8.648;2023-07-02T08:58:52;16.33;;;7.35;;
9547;SDS011;4812;51.992;8.648;2023-07-02T09:01:20;12.93;;;6.95;;
9547;SDS011;4812;51.992;8.648;2023-07-02T09:03:49;16.48;;;6.22;;
9547;SDS011;4812;51.992;8.648;2023-07-02T09:06:17;16.50;;;6.47;;
9547;SDS011;4812;51.992;8.648;2023-07-02T09:08:46;12.95;;;5.65;;
9547;SDS011;4812;51.992;8.648;2023-07-02T09:11:13;12.57;;;6.38;;
9547;SDS011;4812;51.992;8.648;2023-07-02T09:13:46;14.02;;;6.07;;
9547;SDS011;4812;51.992;8.648;2023-07-02T09:16:24;14.77;;;5.90;;
9547;SDS011;4812;51.992;8.648;2023-07-02T09:18:56;15.38;;;5.75;;
9547;SDS011;4812;51.992;8.648;2023-07-02T09:21:39;12.02;;;6.05;;
9547;SDS011;4812;51.992;8.648;2023-07-02T09:27:01;15.98;;;5.93;;
9547;SDS011;4812;51.992;8.648;2023-07-02T09:32:31;15.75;;;5.50;;
9547;SDS011;4812;51.992;8.648;2023-07-02T09:35:00;14.82;;;5.57;;
9547;SDS011;4812;51.992;8.648;2023-07-02T09:37:28;14.48;;;6.03;;
9547;SDS011;4812;51.992;8.648;2023-07-02T09:39:56;16.35;;;6.47;;
9547;SDS011;4812;51.992;8.648;2023-07-02T09:42:24;21.35;;;5.70;;
9547;SDS011;4812;51.992;8.648;2023-07-02T09:44:52;11.68;;;5.47;;
9547;SDS011;4812;51.992;8.648;2023-07-02T09:47:22;18.05;;;5.38;;
9547;SDS011;4812;51.992;8.648;2023-07-02T09:49:52;13.95;;;5.65;;
9547;SDS011;4812;51.992;8.648;2023-07-02T09:52:22;17.58;;;5.65;;
9547;SDS011;4812;51.992;8.648;2023-07-02T09:54:50;18.30;;;6.72;;
9547;SDS011;4812;51.992;8.648;2023-07-02T09:57:17;13.20;;;5.53;;
9547;SDS011;4812;51.992;8.648;2023-07-02T09:59:45;12.48;;;5.38;;
9547;SDS011;4812;51.992;8.648;2023-07-02T10:02:13;10.30;;;4.72;;
9547;SDS011;4812;51.992;8.648;2023-07-02T10:04:41;12.18;;;5.30;;
9547;SDS011;4812;51.992;8.648;2023-07-02T10:07:10;17.35;;;5.95;;
9547;SDS011;4812;51.992;8.648;2023-07-02T10:09:39;12.07;;;5.30;;
9547;SDS011;4812;51.992;8.648;2023-07-02T10:12:15;10.35;;;4.93;;
9547;SDS011;4812;51.992;8.648;2023-07-02T10:14:44;15.02;;;5.90;;
9547;SDS011;4812;51.992;8.648;2023-07-02T10:20:11;12.23;;;4.65;;
9547;SDS011;4812;51.992;8.648;2023-07-02T10:22:43;11.85;;;6.20;;
9547;SDS011;4812;51.992;8.648;2023-07-02T10:25:12;15.80;;;6.30;;
9547;SDS011;4812;51.992;8.648;2023-07-02T10:27:41;11.48;;;6.40;;
9547;SDS011;4812;51.992;8.648;2023-07-02T10:33:06;16.08;;;5.18;;
9547;SDS011;4812;51.992;8.648;2023-07-02T10:35:35;9.85;;;4.97;;
9547;SDS011;4812;51.992;8.648;2023-07-02T10:38:03;15.07;;;5.30;;
9547;SDS011;4812;51.992;8.648;2023-07-02T10:43:37;17.80;;;7.75;;
9547;SDS011;4812;51.992;8.648;2023-07-02T10:46:05;12.13;;;5.95;;
9547;SDS011;4812;51.992;8.648;2023-07-02T10:48:33;14.30;;;5.15;;
9547;SDS011;4812;51.992;8.648;2023-07-02T10:51:10;10.70;;;5.20;;
9547;SDS011;4812;51.992;8.648;2023-07-02T10:53:38;12.02;;;5.30;;
9547;SDS011;4812;51.992;8.648;2023-07-02T10:56:05;13.27;;;5.18;;
9547;SDS011;4812;51.992;8.648;2023-07-02T10:58:41;12.10;;;5.72;;
9547;SDS011;4812;51.992;8.648;2023-07-02T11:01:10;10.73;;;5.18;;
9547;SDS011;4812;51.992;8.648;2023-07-02T11:03:38;16.98;;;5.55;;
9547;SDS011;4812;51.992;8.648;2023-07-02T11:06:06;12.52;;;5.22;;
9547;SDS011;4812;51.992;8.648;2023-07-02T11:11:36;11.05;;;5.95;;
9547;SDS011;4812;51.992;8.648;2023-07-02T11:14:05;13.95;;;5.28;;
9547;SDS011;4812;51.992;8.648;2023-07-02T11:16:32;12.00;;;5.15;;
9547;SDS011;4812;51.992;8.648;2023-07-02T11:19:07;14.35;;;5.68;;
9547;SDS011;4812;51.992;8.648;2023-07-02T11:24:27;12.02;;;5.60;;
9547;SDS011;4812;51.992;8.648;2023-07-02T11:26:56;14.10;;;5.18;;
9547;SDS011;4812;51.992;8.648;2023-07-02T11:29:25;16.50;;;5.80;;
9547;SDS011;4812;51.992;8.648;2023-07-02T11:31:53;14.10;;;7.22;;
9547;SDS011;4812;51.992;8.648;2023-07-02T11:34:21;10.55;;;5.70;;
9547;SDS011;4812;51.992;8.648;2023-07-02T11:36:51;9.77;;;5.47;;
9547;SDS011;4812;51.992;8.648;2023-07-02T11:39:51;10.30;;;5.45;;
9547;SDS011;4812;51.992;8.648;2023-07-02T11:42:18;13.13;;;5.53;;
9547;SDS011;4812;51.992;8.648;2023-07-02T11:44:49;13.13;;;5.90;;
9547;SDS011;4812;51.992;8.648;2023-07-02T11:47:16;15.63;;;5.53;;
9547;SDS011;4812;51.992;8.648;2023-07-02T11:52:46;10.85;;;5.40;;
9547;SDS011;4812;51.992;8.648;2023-07-02T11:55:13;12.20;;;6.03;;
9547;SDS011;4812;51.992;8.648;2023-07-02T11:57:42;11.07;;;5.45;;
9547;SDS011;4812;51.992;8.648;2023-07-02T12:00:11;13.15;;;5.20;;
9547;SDS011;4812;51.992;8.648;2023-07-02T12:02:40;12.75;;;5.78;;
9547;SDS011;4812;51.992;8.648;2023-07-02T12:05:08;16.10;;;5.13;;
9547;SDS011;4812;51.992;8.648;2023-07-02T12:07:38;15.65;;;5.50;;
9547;SDS011;4812;51.992;8.648;2023-07-02T12:10:06;15.15;;;5.32;;
9547;SDS011;4812;51.992;8.648;2023-07-02T12:13:07;10.57;;;4.97;;
9547;SDS011;4812;51.992;8.648;2023-07-02T12:15:36;11.95;;;6.15;;
9547;SDS011;4812;51.992;8.648;2023-07-02T12:21:06;10.30;;;5.53;;
9547;SDS011;4812;51.992;8.648;2023-07-02T12:23:33;9.63;;;4.40;;
9547;SDS011;4812;51.992;8.648;2023-07-02T12:26:01;10.35;;;4.55;;
9547;SDS011;4812;51.992;8.648;2023-07-02T12:28:28;13.82;;;5.10;;
9547;SDS011;4812;51.992;8.648;2023-07-02T12:30:57;14.35;;;5.63;;
9547;SDS011;4812;51.992;8.648;2023-07-02T12:33:25;14.07;;;5.28;;
9547;SDS011;4812;51.992;8.648;2023-07-02T12:35:52;17.17;;;4.72;;
9547;SDS011;4812;51.992;8.648;2023-07-02T12:38:20;12.68;;;5.35;;
9547;SDS011;4812;51.992;8.648;2023-07-02T12:40:48;14.70;;;4.97;;
9547;SDS011;4812;51.992;8.648;2023-07-02T12:43:16;12.30;;;5.43;;
9547;SDS011;4812;51.992;8.648;2023-07-02T12:48:38;12.38;;;5.55;;
9547;SDS011;4812;51.992;8.648;2023-07-02T12:51:06;11.35;;;4.50;;
9547;SDS011;4812;51.992;8.648;2023-07-02T12:53:34;8.10;;;4.70;;
9547;SDS011;4812;51.992;8.648;2023-07-02T12:56:01;10.02;;;4.38;;
9547;SDS011;4812;51.992;8.648;2023-07-02T12:58:29;9.55;;;4.20;;
9547;SDS011;4812;51.992;8.648;2023-07-02T13:00:56;12.55;;;5.85;;
9547;SDS011;4812;51.992;8.648;2023-07-02T13:03:24;9.38;;;4.97;;
9547;SDS011;4812;51.992;8.648;2023-07-02T13:05:53;12.23;;;4.55;;
9547;SDS011;4812;51.992;8.648;2023-07-02T13:08:21;9.07;;;4.40;;
9547;SDS011;4812;51.992;8.648;2023-07-02T13:10:48;11.60;;;4.95;;
9547;SDS011;4812;51.992;8.648;2023-07-02T13:13:16;13.20;;;5.20;;
9547;SDS011;4812;51.992;8.648;2023-07-02T13:15:49;12.60;;;4.72;;
9547;SDS011;4812;51.992;8.648;2023-07-02T13:18:17;18.40;;;7.40;;
9547;SDS011;4812;51.992;8.648;2023-07-02T13:20:44;11.63;;;4.45;;
9547;SDS011;4812;51.992;8.648;2023-07-02T13:23:13;11.30;;;4.57;;
9547;SDS011;4812;51.992;8.648;2023-07-02T13:25:41;11.55;;;4.18;;
9547;SDS011;4812;51.992;8.648;2023-07-02T13:28:08;16.52;;;4.35;;
9547;SDS011;4812;51.992;8.648;2023-07-02T13:30:36;9.20;;;3.83;;
9547;SDS011;4812;51.992;8.648;2023-07-02T13:33:04;11.23;;;4.55;;
9547;SDS011;4812;51.992;8.648;2023-07-02T13:35:31;8.90;;;4.20;;
9547;SDS011;4812;51.992;8.648;2023-07-02T13:40:48;7.70;;;3.70;;
9547;SDS011;4812;51.992;8.648;2023-07-02T13:43:16;10.77;;;4.90;;
9547;SDS011;4812;51.992;8.648;2023-07-02T13:45:43;8.65;;;4.20;;
9547;SDS011;4812;51.992;8.648;2023-07-02T13:48:11;10.63;;;4.57;;
9547;SDS011;4812;51.992;8.648;2023-07-02T13:50:39;10.82;;;3.92;;
9547;SDS011;4812;51.992;8.648;2023-07-02T13:53:07;8.93;;;4.47;;
9547;SDS011;4812;51.992;8.648;2023-07-02T14:01:27;8.88;;;4.57;;
9547;SDS011;4812;51.992;8.648;2023-07-02T14:03:55;10.15;;;4.30;;
9547;SDS011;4812;51.992;8.648;2023-07-02T14:06:22;8.98;;;4.25;;
9547;SDS011;4812;51.992;8.648;2023-07-02T14:08:50;14.38;;;4.47;;
9547;SDS011;4812;51.992;8.648;2023-07-02T14:11:18;8.93;;;3.90;;
9547;SDS011;4812;51.992;8.648;2023-07-02T14:13:46;12.93;;;4.78;;
9547;SDS011;4812;51.992;8.648;2023-07-02T14:16:15;8.68;;;3.85;;
9547;SDS011;4812;51.992;8.648;2023-07-02T14:18:43;11.30;;;4.50;;
9547;SDS011;4812;51.992;8.648;2023-07-02T14:21:10;6.93;;;4.45;;
9547;SDS011;4812;51.992;8.648;2023-07-02T14:23:38;6.93;;;3.90;;
9547;SDS011;4812;51.992;8.648;2023-07-02T14:26:05;10.43;;;4.32;;
9547;SDS011;4812;51.992;8.648;2023-07-02T14:31:37;9.73;;;4.90;;
9547;SDS011;4812;51.992;8.648;2023-07-02T14:34:05;12.80;;;4.47;;
9547;SDS011;4812;51.992;8.648;2023-07-02T14:36:32;10.38;;;3.75;;
9547;SDS011;4812;51.992;8.648;2023-07-02T14:39:00;10.07;;;3.83;;
9547;SDS011;4812;51.992;8.648;2023-07-02T14:41:29;11.95;;;4.43;;
9547;SDS011;4812;51.992;8.648;2023-07-02T14:44:01;11.30;;;4.82;;
9547;SDS011;4812;51.992;8.648;2023-07-02T14:46:29;6.50;;;3.90;;
9547;SDS011;4812;51.992;8.648;2023-07-02T14:52:06;9.27;;;4.90;;
9547;SDS011;4812;51.992;8.648;2023-07-02T14:57:36;11.05;;;4.95;;
9547;SDS011;4812;51.992;8.648;2023-07-02T15:00:04;9.05;;;4.30;;
9547;SDS011;4812;51.992;8.648;2023-07-02T15:02:33;11.35;;;4.28;;
9547;SDS011;4812;51.992;8.648;2023-07-02T15:07:58;9.13;;;4.13;;
9547;SDS011;4812;51.992;8.648;2023-07-02T15:10:26;12.77;;;5.45;;
9547;SDS011;4812;51.992;8.648;2023-07-02T15:12:53;12.70;;;4.68;;
9547;SDS011;4812;51.992;8.648;2023-07-02T15:18:12;11.32;;;3.95;;
9547;SDS011;4812;51.992;8.648;2023-07-02T15:20:40;9.05;;;4.28;;
9547;SDS011;4812;51.992;8.648;2023-07-02T15:23:09;10.80;;;4.57;;
9547;SDS011;4812;51.992;8.648;2023-07-02T15:25:36;14.27;;;5.28;;
9547;SDS011;4812;51.992;8.648;2023-07-02T15:28:04;9.43;;;4.70;;
9547;SDS011;4812;51.992;8.648;2023-07-02T15:30:31;13.40;;;4.57;;
9547;SDS011;4812;51.992;8.648;2023-07-02T15:32:59;9.90;;;5.03;;
9547;SDS011;4812;51.992;8.648;2023-07-02T15:35:27;9.13;;;4.60;;
9547;SDS011;4812;51.992;8.648;2023-07-02T15:37:55;10.10;;;4.97;;
9547;SDS011;4812;51.992;8.648;2023-07-02T15:40:25;10.45;;;4.68;;
9547;SDS011;4812;51.992;8.648;2023-07-02T15:42:53;11.80;;;5.30;;
9547;SDS011;4812;51.992;8.648;2023-07-02T15:45:21;10.80;;;4.35;;
9547;SDS011;4812;51.992;8.648;2023-07-02T15:47:48;13.35;;;5.57;;
9547;SDS011;4812;51.992;8.648;2023-07-02T15:50:16;12.57;;;6.25;;
9547;SDS011;4812;51.992;8.648;2023-07-02T15:52:43;12.18;;;4.38;;
9547;SDS011;4812;51.992;8.648;2023-07-02T15:55:11;14.27;;;4.90;;
9547;SDS011;4812;51.992;8.648;2023-07-02T15:57:40;10.30;;;5.18;;
9547;SDS011;4812;51.992;8.648;2023-07-02T16:00:08;10.05;;;4.40;;
9547;SDS011;4812;51.992;8.648;2023-07-02T16:02:40;12.13;;;5.72;;
9547;SDS011;4812;51.992;8.648;2023-07-02T16:05:08;11.60;;;4.55;;
9547;SDS011;4812;51.992;8.648;2023-07-02T16:07:36;11.77;;;4.88;;
9547;SDS011;4812;51.992;8.648;2023-07-02T16:12:34;10.20;;;4.75;;
9547;SDS011;4812;51.992;8.648;2023-07-02T16:15:03;8.50;;;4.32;;
9547;SDS011;4812;51.992;8.648;2023-07-02T16:17:32;12.95;;;5.18;;
9547;SDS011;4812;51.992;8.648;2023-07-02T16:20:00;14.50;;;4.47;;
9547;SDS011;4812;51.992;8.648;2023-07-02T16:22:27;11.73;;;4.78;;
9547;SDS011;4812;51.992;8.648;2023-07-02T16:27:58;8.82;;;5.00;;
9547;SDS011;4812;51.992;8.648;2023-07-02T16:30:27;11.93;;;5.25;;
9547;SDS011;4812;51.992;8.648;2023-07-02T16:32:54;16.80;;;4.97;;
9547;SDS011;4812;51.992;8.648;2023-07-02T16:35:22;14.25;;;4.55;;
9547;SDS011;4812;51.992;8.648;2023-07-02T16:37:49;12.40;;;4.57;;
9547;SDS011;4812;51.992;8.648;2023-07-02T16:40:17;11.52;;;4.93;;
9547;SDS011;4812;51.992;8.648;2023-07-02T16:42:44;11.68;;;4.97;;
9547;SDS011;4812;51.992;8.648;2023-07-02T16:45:12;11.10;;;4.68;;
9547;SDS011;4812;51.992;8.648;2023-07-02T16:47:44;9.10;;;4.40;;
9547;SDS011;4812;51.992;8.648;2023-07-02T16:50:13;13.48;;;4.80;;
9547;SDS011;4812;51.992;8.648;2023-07-02T16:52:41;11.35;;;4.22;;
9547;SDS011;4812;51.992;8.648;2023-07-02T16:55:08;11.95;;;4.40;;
9547;SDS011;4812;51.992;8.648;2023-07-02T16:57:36;11.63;;;4.53;;
9547;SDS011;4812;51.992;8.648;2023-07-02T17:00:04;12.90;;;4.97;;
9547;SDS011;4812;51.992;8.648;2023-07-02T17:02:33;15.60;;;4.43;;
9547;SDS011;4812;51.992;8.648;2023-07-02T17:05:03;15.43;;;5.60;;
9547;SDS011;4812;51.992;8.648;2023-07-02T17:07:31;10.88;;;4.45;;
9547;SDS011;4812;51.992;8.648;2023-07-02T17:09:58;11.75;;;4.20;;
9547;SDS011;4812;51.992;8.648;2023-07-02T17:12:26;9.15;;;4.28;;
9547;SDS011;4812;51.992;8.648;2023-07-02T17:14:53;6.57;;;3.90;;
9547;SDS011;4812;51.992;8.648;2023-07-02T17:20:21;8.40;;;4.30;;
9547;SDS011;4812;51.992;8.648;2023-07-02T17:22:49;8.02;;;3.78;;
9547;SDS011;4812;51.992;8.648;2023-07-02T17:25:17;13.32;;;4.60;;
9547;SDS011;4812;51.992;8.648;2023-07-02T17:27:44;9.63;;;4.38;;
9547;SDS011;4812;51.992;8.648;2023-07-02T17:30:12;9.38;;;3.35;;
9547;SDS011;4812;51.992;8.648;2023-07-02T17:32:40;9.43;;;4.43;;
9547;SDS011;4812;51.992;8.648;2023-07-02T17:35:08;11.98;;;3.83;;
9547;SDS011;4812;51.992;8.648;2023-07-02T17:37:41;11.27;;;3.47;;